sensor_id;sensor_type;location;lat;lon;timestamp;P1;durP1;ratioP1;P2;durP2;ratioP2
42518;SDS011;28147;47.520;18.920;2022-10-19T00:01:03;6.20;;;3.20;;
42518;SDS011;28147;47.520;18.920;2022-10-19T00:03:37;4.97;;;2.88;;
42518;SDS011;28147;47.520;18.920;2022-10-19T00:06:13;4.75;;;3.10;;
42518;SDS011;28147;47.520;18.920;2022-10-19T00:08:43;6.55;;;3.30;;
42518;SDS011;28147;47.520;18.920;2022-10-19T00:11:09;7.80;;;4.07;;
42518;SDS011;28147;47.520;18.920;2022-10-19T00:13:35;5.57;;;3.08;;
42518;SDS011;28147;47.520;18.920;2022-10-19T00:16:01;4.50;;;2.75;;
42518;SDS011;28147;47.520;18.920;2022-10-19T00:18:32;5.25;;;3.17;;
42518;SDS011;28147;47.520;18.920;2022-10-19T00:21:02;5.95;;;3.20;;
42518;SDS011;28147;47.520;18.920;2022-10-19T00:23:29;5.40;;;3.55;;
42518;SDS011;28147;47.520;18.920;2022-10-19T00:25:54;6.25;;;3.47;;
42518;SDS011;28147;47.520;18.920;2022-10-19T00:28:20;6.38;;;3.42;;
42518;SDS011;28147;47.520;18.920;2022-10-19T00:30:46;5.85;;;3.17;;
42518;SDS011;28147;47.520;18.920;2022-10-19T00:33:11;6.63;;;3.90;;
42518;SDS011;28147;47.520;18.920;2022-10-19T00:35:39;7.63;;;3.72;;
42518;SDS011;28147;47.520;18.920;2022-10-19T00:38:05;7.32;;;3.33;;
42518;SDS011;28147;47.520;18.920;2022-10-19T00:40:39;6.47;;;4.00;;
42518;SDS011;28147;47.520;18.920;2022-10-19T00:43:08;5.70;;;3.55;;
42518;SDS011;28147;47.520;18.920;2022-10-19T00:45:39;6.35;;;3.80;;
42518;SDS011;28147;47.520;18.920;2022-10-19T00:48:05;6.43;;;3.30;;
42518;SDS011;28147;47.520;18.920;2022-10-19T00:50:31;7.10;;;3.72;;
42518;SDS011;28147;47.520;18.920;2022-10-19T00:52:56;6.60;;;3.58;;
42518;SDS011;28147;47.520;18.920;2022-10-19T00:55:22;11.52;;;4.07;;
42518;SDS011;28147;47.520;18.920;2022-10-19T00:57:48;5.38;;;3.55;;
42518;SDS011;28147;47.520;18.920;2022-10-19T01:00:14;5.63;;;3.70;;
42518;SDS011;28147;47.520;18.920;2022-10-19T01:02:39;6.72;;;3.78;;
42518;SDS011;28147;47.520;18.920;2022-10-19T01:05:05;7.97;;;3.70;;
42518;SDS011;28147;47.520;18.920;2022-10-19T01:07:31;8.00;;;3.58;;
42518;SDS011;28147;47.520;18.920;2022-10-19T01:09:57;6.28;;;3.70;;
42518;SDS011;28147;47.520;18.920;2022-10-19T01:17:55;6.07;;;3.60;;
42518;SDS011;28147;47.520;18.920;2022-10-19T01:20:46;6.63;;;3.88;;
42518;SDS011;28147;47.520;18.920;2022-10-19T01:26:14;8.32;;;4.25;;
42518;SDS011;28147;47.520;18.920;2022-10-19T01:40:03;9.70;;;4.20;;
42518;SDS011;28147;47.520;18.920;2022-10-19T01:42:36;7.88;;;4.53;;
42518;SDS011;28147;47.520;18.920;2022-10-19T01:45:17;8.00;;;4.32;;
42518;SDS011;28147;47.520;18.920;2022-10-19T01:47:58;7.43;;;4.45;;
42518;SDS011;28147;47.520;18.920;2022-10-19T01:50:42;8.57;;;4.47;;
42518;SDS011;28147;47.520;18.920;2022-10-19T01:53:12;7.25;;;4.75;;
42518;SDS011;28147;47.520;18.920;2022-10-19T01:55:41;6.75;;;4.65;;
42518;SDS011;28147;47.520;18.920;2022-10-19T01:58:09;8.20;;;4.63;;
42518;SDS011;28147;47.520;18.920;2022-10-19T02:03:06;7.45;;;4.40;;
42518;SDS011;28147;47.520;18.920;2022-10-19T02:05:34;8.85;;;5.05;;
42518;SDS011;28147;47.520;18.920;2022-10-19T02:08:10;6.72;;;4.13;;
42518;SDS011;28147;47.520;18.920;2022-10-19T02:10:40;7.88;;;5.03;;
42518;SDS011;28147;47.520;18.920;2022-10-19T02:13:08;7.40;;;4.55;;
42518;SDS011;28147;47.520;18.920;2022-10-19T02:15:37;8.00;;;5.28;;
42518;SDS011;28147;47.520;18.920;2022-10-19T02:18:05;7.13;;;5.03;;
42518;SDS011;28147;47.520;18.920;2022-10-19T02:20:33;7.03;;;4.90;;
42518;SDS011;28147;47.520;18.920;2022-10-19T02:23:02;8.32;;;5.07;;
42518;SDS011;28147;47.520;18.920;2022-10-19T02:25:29;8.60;;;5.47;;
42518;SDS011;28147;47.520;18.920;2022-10-19T02:27:54;7.97;;;5.72;;
42518;SDS011;28147;47.520;18.920;2022-10-19T02:30:20;8.85;;;5.50;;
42518;SDS011;28147;47.520;18.920;2022-10-19T02:32:46;10.45;;;6.50;;
42518;SDS011;28147;47.520;18.920;2022-10-19T02:35:11;9.70;;;6.47;;
42518;SDS011;28147;47.520;18.920;2022-10-19T02:37:39;11.30;;;7.13;;
42518;SDS011;28147;47.520;18.920;2022-10-19T02:40:05;10.18;;;6.93;;
42518;SDS011;28147;47.520;18.920;2022-10-19T02:43:13;9.52;;;6.10;;
42518;SDS011;28147;47.520;18.920;2022-10-19T02:45:28;11.38;;;6.63;;
42518;SDS011;28147;47.520;18.920;2022-10-19T02:48:01;9.35;;;6.32;;
42518;SDS011;28147;47.520;18.920;2022-10-19T02:50:31;12.80;;;6.15;;
42518;SDS011;28147;47.520;18.920;2022-10-19T02:52:57;8.73;;;5.85;;
42518;SDS011;28147;47.520;18.920;2022-10-19T02:55:23;10.25;;;6.07;;
42518;SDS011;28147;47.520;18.920;2022-10-19T02:57:48;10.32;;;6.43;;
42518;SDS011;28147;47.520;18.920;2022-10-19T03:00:14;13.02;;;6.45;;
42518;SDS011;28147;47.520;18.920;2022-10-19T03:02:39;11.38;;;5.82;;
42518;SDS011;28147;47.520;18.920;2022-10-19T03:05:05;10.05;;;5.65;;
42518;SDS011;28147;47.520;18.920;2022-10-19T03:07:31;12.02;;;6.00;;
42518;SDS011;28147;47.520;18.920;2022-10-19T03:09:56;9.05;;;6.13;;
42518;SDS011;28147;47.520;18.920;2022-10-19T03:12:21;10.38;;;5.80;;
42518;SDS011;28147;47.520;18.920;2022-10-19T03:14:47;10.80;;;6.03;;
42518;SDS011;28147;47.520;18.920;2022-10-19T03:17:12;9.55;;;5.57;;
42518;SDS011;28147;47.520;18.920;2022-10-19T03:19:38;9.77;;;6.40;;
42518;SDS011;28147;47.520;18.920;2022-10-19T03:22:03;6.80;;;5.18;;
42518;SDS011;28147;47.520;18.920;2022-10-19T03:24:30;10.68;;;6.65;;
42518;SDS011;28147;47.520;18.920;2022-10-19T03:26:56;12.10;;;6.53;;
42518;SDS011;28147;47.520;18.920;2022-10-19T03:29:21;9.07;;;6.00;;
42518;SDS011;28147;47.520;18.920;2022-10-19T03:31:46;9.77;;;6.35;;
42518;SDS011;28147;47.520;18.920;2022-10-19T03:34:12;9.50;;;5.95;;
42518;SDS011;28147;47.520;18.920;2022-10-19T03:36:38;10.65;;;5.65;;
42518;SDS011;28147;47.520;18.920;2022-10-19T03:39:09;10.65;;;5.75;;
42518;SDS011;28147;47.520;18.920;2022-10-19T03:41:37;8.10;;;4.97;;
42518;SDS011;28147;47.520;18.920;2022-10-19T03:44:03;7.20;;;4.72;;
42518;SDS011;28147;47.520;18.920;2022-10-19T03:46:29;6.88;;;4.53;;
42518;SDS011;28147;47.520;18.920;2022-10-19T03:48:55;8.07;;;5.13;;
42518;SDS011;28147;47.520;18.920;2022-10-19T03:51:21;7.65;;;5.03;;
42518;SDS011;28147;47.520;18.920;2022-10-19T03:53:53;7.80;;;4.63;;
42518;SDS011;28147;47.520;18.920;2022-10-19T03:56:20;8.43;;;5.10;;
42518;SDS011;28147;47.520;18.920;2022-10-19T03:58:47;8.35;;;5.38;;
42518;SDS011;28147;47.520;18.920;2022-10-19T04:01:15;7.60;;;4.93;;
42518;SDS011;28147;47.520;18.920;2022-10-19T04:03:42;7.63;;;5.05;;
42518;SDS011;28147;47.520;18.920;2022-10-19T04:06:17;9.82;;;5.80;;
42518;SDS011;28147;47.520;18.920;2022-10-19T04:08:43;8.05;;;5.05;;
42518;SDS011;28147;47.520;18.920;2022-10-19T04:11:12;11.02;;;6.00;;
42518;SDS011;28147;47.520;18.920;2022-10-19T04:13:39;9.45;;;5.28;;
42518;SDS011;28147;47.520;18.920;2022-10-19T04:16:05;8.82;;;5.55;;
42518;SDS011;28147;47.520;18.920;2022-10-19T04:18:31;10.13;;;6.22;;
42518;SDS011;28147;47.520;18.920;2022-10-19T04:20:57;11.57;;;6.45;;
42518;SDS011;28147;47.520;18.920;2022-10-19T04:23:28;10.10;;;6.32;;
42518;SDS011;28147;47.520;18.920;2022-10-19T04:25:58;10.25;;;5.80;;
42518;SDS011;28147;47.520;18.920;2022-10-19T04:28:25;9.60;;;6.68;;
42518;SDS011;28147;47.520;18.920;2022-10-19T04:30:50;9.02;;;5.82;;
42518;SDS011;28147;47.520;18.920;2022-10-19T04:33:15;8.82;;;5.40;;
42518;SDS011;28147;47.520;18.920;2022-10-19T04:35:41;11.48;;;6.20;;
42518;SDS011;28147;47.520;18.920;2022-10-19T04:38:06;9.18;;;6.00;;
42518;SDS011;28147;47.520;18.920;2022-10-19T04:40:33;9.85;;;5.95;;
42518;SDS011;28147;47.520;18.920;2022-10-19T04:43:00;8.75;;;6.00;;
42518;SDS011;28147;47.520;18.920;2022-10-19T04:45:25;8.48;;;6.15;;
42518;SDS011;28147;47.520;18.920;2022-10-19T04:47:50;10.80;;;6.07;;
42518;SDS011;28147;47.520;18.920;2022-10-19T04:50:18;10.35;;;5.70;;
42518;SDS011;28147;47.520;18.920;2022-10-19T04:52:44;8.98;;;5.70;;
42518;SDS011;28147;47.520;18.920;2022-10-19T04:55:09;9.52;;;5.15;;
42518;SDS011;28147;47.520;18.920;2022-10-19T04:57:35;10.65;;;6.57;;
42518;SDS011;28147;47.520;18.920;2022-10-19T05:00:00;9.60;;;5.82;;
42518;SDS011;28147;47.520;18.920;2022-10-19T05:02:26;9.57;;;5.55;;
42518;SDS011;28147;47.520;18.920;2022-10-19T05:04:51;9.30;;;5.93;;
42518;SDS011;28147;47.520;18.920;2022-10-19T05:07:16;8.30;;;6.35;;
42518;SDS011;28147;47.520;18.920;2022-10-19T05:09:42;9.05;;;6.03;;
42518;SDS011;28147;47.520;18.920;2022-10-19T05:12:07;9.02;;;6.07;;
42518;SDS011;28147;47.520;18.920;2022-10-19T05:14:33;7.47;;;5.45;;
42518;SDS011;28147;47.520;18.920;2022-10-19T05:16:58;6.82;;;4.88;;
42518;SDS011;28147;47.520;18.920;2022-10-19T05:19:24;7.60;;;4.05;;
42518;SDS011;28147;47.520;18.920;2022-10-19T05:21:49;5.47;;;4.10;;
42518;SDS011;28147;47.520;18.920;2022-10-19T05:24:14;5.60;;;3.30;;
42518;SDS011;28147;47.520;18.920;2022-10-19T05:26:40;8.05;;;4.35;;
42518;SDS011;28147;47.520;18.920;2022-10-19T05:29:05;9.00;;;3.83;;
42518;SDS011;28147;47.520;18.920;2022-10-19T05:31:34;6.07;;;4.13;;
42518;SDS011;28147;47.520;18.920;2022-10-19T05:34:03;5.85;;;3.30;;
42518;SDS011;28147;47.520;18.920;2022-10-19T05:36:35;5.28;;;3.53;;
42518;SDS011;28147;47.520;18.920;2022-10-19T05:39:03;6.53;;;3.92;;
42518;SDS011;28147;47.520;18.920;2022-10-19T05:41:31;5.38;;;3.47;;
42518;SDS011;28147;47.520;18.920;2022-10-19T05:43:57;7.95;;;4.30;;
42518;SDS011;28147;47.520;18.920;2022-10-19T05:46:24;6.15;;;3.25;;
42518;SDS011;28147;47.520;18.920;2022-10-19T05:48:51;5.90;;;4.18;;
42518;SDS011;28147;47.520;18.920;2022-10-19T05:51:18;7.57;;;3.47;;
42518;SDS011;28147;47.520;18.920;2022-10-19T05:53:45;5.78;;;3.83;;
42518;SDS011;28147;47.520;18.920;2022-10-19T05:56:15;5.85;;;3.60;;
42518;SDS011;28147;47.520;18.920;2022-10-19T05:58:41;6.60;;;4.18;;
42518;SDS011;28147;47.520;18.920;2022-10-19T06:01:07;6.00;;;3.40;;
42518;SDS011;28147;47.520;18.920;2022-10-19T06:03:33;6.70;;;3.35;;
42518;SDS011;28147;47.520;18.920;2022-10-19T06:06:01;6.18;;;3.67;;
42518;SDS011;28147;47.520;18.920;2022-10-19T06:08:28;6.65;;;3.70;;
42518;SDS011;28147;47.520;18.920;2022-10-19T06:10:56;5.97;;;3.05;;
42518;SDS011;28147;47.520;18.920;2022-10-19T06:13:29;6.00;;;3.85;;
42518;SDS011;28147;47.520;18.920;2022-10-19T06:15:54;5.78;;;3.60;;
42518;SDS011;28147;47.520;18.920;2022-10-19T06:18:19;5.20;;;3.28;;
42518;SDS011;28147;47.520;18.920;2022-10-19T06:20:49;6.80;;;3.50;;
42518;SDS011;28147;47.520;18.920;2022-10-19T06:23:15;7.97;;;3.80;;
42518;SDS011;28147;47.520;18.920;2022-10-19T06:25:42;4.57;;;3.05;;
42518;SDS011;28147;47.520;18.920;2022-10-19T06:28:08;6.35;;;3.47;;
42518;SDS011;28147;47.520;18.920;2022-10-19T06:30:37;5.25;;;3.33;;
42518;SDS011;28147;47.520;18.920;2022-10-19T06:33:04;5.38;;;4.05;;
42518;SDS011;28147;47.520;18.920;2022-10-19T06:35:29;5.60;;;3.75;;
42518;SDS011;28147;47.520;18.920;2022-10-19T06:37:55;6.22;;;3.83;;
42518;SDS011;28147;47.520;18.920;2022-10-19T06:40:21;6.00;;;3.35;;
42518;SDS011;28147;47.520;18.920;2022-10-19T06:42:47;5.50;;;3.45;;
42518;SDS011;28147;47.520;18.920;2022-10-19T06:45:12;5.50;;;3.15;;
42518;SDS011;28147;47.520;18.920;2022-10-19T06:47:38;4.85;;;3.22;;
42518;SDS011;28147;47.520;18.920;2022-10-19T06:50:03;6.65;;;2.83;;
42518;SDS011;28147;47.520;18.920;2022-10-19T06:52:29;4.70;;;3.03;;
42518;SDS011;28147;47.520;18.920;2022-10-19T06:54:55;6.13;;;3.28;;
42518;SDS011;28147;47.520;18.920;2022-10-19T06:57:20;5.70;;;3.28;;
42518;SDS011;28147;47.520;18.920;2022-10-19T06:59:46;5.45;;;3.08;;
42518;SDS011;28147;47.520;18.920;2022-10-19T07:02:11;6.85;;;3.90;;
42518;SDS011;28147;47.520;18.920;2022-10-19T07:04:36;6.50;;;3.72;;
42518;SDS011;28147;47.520;18.920;2022-10-19T07:07:02;5.75;;;3.40;;
42518;SDS011;28147;47.520;18.920;2022-10-19T07:09:28;4.13;;;2.90;;
42518;SDS011;28147;47.520;18.920;2022-10-19T07:11:53;6.53;;;3.38;;
42518;SDS011;28147;47.520;18.920;2022-10-19T07:14:18;5.32;;;3.30;;
42518;SDS011;28147;47.520;18.920;2022-10-19T07:16:44;4.60;;;2.92;;
42518;SDS011;28147;47.520;18.920;2022-10-19T07:19:09;5.35;;;2.97;;
42518;SDS011;28147;47.520;18.920;2022-10-19T07:21:35;5.22;;;3.25;;
42518;SDS011;28147;47.520;18.920;2022-10-19T07:24:05;4.75;;;3.22;;
42518;SDS011;28147;47.520;18.920;2022-10-19T07:26:31;5.30;;;2.70;;
42518;SDS011;28147;47.520;18.920;2022-10-19T07:28:57;5.38;;;2.58;;
42518;SDS011;28147;47.520;18.920;2022-10-19T07:31:24;5.68;;;3.35;;
42518;SDS011;28147;47.520;18.920;2022-10-19T07:33:54;5.38;;;2.90;;
42518;SDS011;28147;47.520;18.920;2022-10-19T07:36:21;5.03;;;2.90;;
42518;SDS011;28147;47.520;18.920;2022-10-19T07:38:47;6.22;;;3.08;;
42518;SDS011;28147;47.520;18.920;2022-10-19T07:41:13;3.97;;;2.35;;
42518;SDS011;28147;47.520;18.920;2022-10-19T07:43:40;3.63;;;2.33;;
42518;SDS011;28147;47.520;18.920;2022-10-19T07:46:09;4.57;;;2.75;;
42518;SDS011;28147;47.520;18.920;2022-10-19T07:48:36;4.90;;;2.85;;
42518;SDS011;28147;47.520;18.920;2022-10-19T07:51:03;5.22;;;2.47;;
42518;SDS011;28147;47.520;18.920;2022-10-19T07:53:30;4.28;;;2.80;;
42518;SDS011;28147;47.520;18.920;2022-10-19T07:56:05;2.92;;;1.92;;
42518;SDS011;28147;47.520;18.920;2022-10-19T07:58:32;3.47;;;2.00;;
42518;SDS011;28147;47.520;18.920;2022-10-19T08:01:02;3.53;;;2.13;;
42518;SDS011;28147;47.520;18.920;2022-10-19T08:03:35;3.60;;;2.30;;
42518;SDS011;28147;47.520;18.920;2022-10-19T08:06:02;3.55;;;1.80;;
42518;SDS011;28147;47.520;18.920;2022-10-19T08:08:29;4.75;;;2.75;;
42518;SDS011;28147;47.520;18.920;2022-10-19T08:10:55;2.88;;;1.83;;
42518;SDS011;28147;47.520;18.920;2022-10-19T08:13:21;3.83;;;1.98;;
42518;SDS011;28147;47.520;18.920;2022-10-19T08:15:47;2.97;;;1.92;;
42518;SDS011;28147;47.520;18.920;2022-10-19T08:18:12;2.85;;;1.80;;
42518;SDS011;28147;47.520;18.920;2022-10-19T08:20:41;4.93;;;2.30;;
42518;SDS011;28147;47.520;18.920;2022-10-19T08:23:08;2.30;;;1.70;;
42518;SDS011;28147;47.520;18.920;2022-10-19T08:25:34;5.80;;;2.45;;
42518;SDS011;28147;47.520;18.920;2022-10-19T08:28:01;3.97;;;2.33;;
42518;SDS011;28147;47.520;18.920;2022-10-19T08:30:27;4.18;;;2.30;;
42518;SDS011;28147;47.520;18.920;2022-10-19T08:32:52;4.20;;;1.80;;
42518;SDS011;28147;47.520;18.920;2022-10-19T08:35:17;3.65;;;2.38;;
42518;SDS011;28147;47.520;18.920;2022-10-19T08:37:43;4.40;;;2.13;;
42518;SDS011;28147;47.520;18.920;2022-10-19T08:40:16;3.53;;;2.00;;
42518;SDS011;28147;47.520;18.920;2022-10-19T08:47:57;4.95;;;1.92;;
42518;SDS011;28147;47.520;18.920;2022-10-19T08:50:24;2.53;;;1.67;;
42518;SDS011;28147;47.520;18.920;2022-10-19T08:52:54;4.60;;;1.73;;
42518;SDS011;28147;47.520;18.920;2022-10-19T08:55:48;3.38;;;1.90;;
42518;SDS011;28147;47.520;18.920;2022-10-19T09:04:05;3.22;;;1.58;;
42518;SDS011;28147;47.520;18.920;2022-10-19T09:06:47;2.85;;;1.63;;
42518;SDS011;28147;47.520;18.920;2022-10-19T09:09:14;2.15;;;1.33;;
42518;SDS011;28147;47.520;18.920;2022-10-19T09:11:45;3.47;;;1.88;;
42518;SDS011;28147;47.520;18.920;2022-10-19T09:14:15;3.28;;;1.33;;
42518;SDS011;28147;47.520;18.920;2022-10-19T09:16:41;3.90;;;1.50;;
42518;SDS011;28147;47.520;18.920;2022-10-19T09:19:11;2.67;;;1.70;;
42518;SDS011;28147;47.520;18.920;2022-10-19T09:27:25;2.80;;;1.73;;
42518;SDS011;28147;47.520;18.920;2022-10-19T09:29:57;2.83;;;1.60;;
42518;SDS011;28147;47.520;18.920;2022-10-19T09:32:34;2.25;;;1.40;;
42518;SDS011;28147;47.520;18.920;2022-10-19T09:35:03;2.95;;;1.50;;
42518;SDS011;28147;47.520;18.920;2022-10-19T09:37:31;2.05;;;1.10;;
42518;SDS011;28147;47.520;18.920;2022-10-19T09:40:04;3.72;;;1.92;;
42518;SDS011;28147;47.520;18.920;2022-10-19T09:42:31;3.80;;;1.35;;
42518;SDS011;28147;47.520;18.920;2022-10-19T09:44:58;2.47;;;1.50;;
42518;SDS011;28147;47.520;18.920;2022-10-19T09:47:34;2.45;;;1.40;;
42518;SDS011;28147;47.520;18.920;2022-10-19T09:50:08;2.20;;;1.50;;
42518;SDS011;28147;47.520;18.920;2022-10-19T09:52:39;1.48;;;1.13;;
42518;SDS011;28147;47.520;18.920;2022-10-19T09:57:45;1.95;;;1.20;;
42518;SDS011;28147;47.520;18.920;2022-10-19T10:02:48;3.78;;;1.40;;
42518;SDS011;28147;47.520;18.920;2022-10-19T10:05:19;2.05;;;1.20;;
42518;SDS011;28147;47.520;18.920;2022-10-19T10:08:01;2.55;;;1.65;;
42518;SDS011;28147;47.520;18.920;2022-10-19T10:10:38;1.85;;;1.10;;
42518;SDS011;28147;47.520;18.920;2022-10-19T10:13:17;1.83;;;1.23;;
42518;SDS011;28147;47.520;18.920;2022-10-19T10:15:48;2.50;;;1.15;;
42518;SDS011;28147;47.520;18.920;2022-10-19T10:18:18;1.65;;;1.00;;
42518;SDS011;28147;47.520;18.920;2022-10-19T10:24:00;2.22;;;1.05;;
42518;SDS011;28147;47.520;18.920;2022-10-19T10:26:29;1.83;;;1.20;;
42518;SDS011;28147;47.520;18.920;2022-10-19T10:28:55;2.83;;;1.60;;
42518;SDS011;28147;47.520;18.920;2022-10-19T10:31:22;1.38;;;1.02;;
42518;SDS011;28147;47.520;18.920;2022-10-19T10:33:51;2.70;;;1.07;;
42518;SDS011;28147;47.520;18.920;2022-10-19T10:36:22;1.98;;;1.17;;
42518;SDS011;28147;47.520;18.920;2022-10-19T10:38:50;1.60;;;0.80;;
42518;SDS011;28147;47.520;18.920;2022-10-19T10:44:02;1.30;;;0.80;;
42518;SDS011;28147;47.520;18.920;2022-10-19T10:46:36;2.60;;;1.85;;
42518;SDS011;28147;47.520;18.920;2022-10-19T10:49:19;1.02;;;0.73;;
42518;SDS011;28147;47.520;18.920;2022-10-19T10:51:49;1.02;;;0.57;;
42518;SDS011;28147;47.520;18.920;2022-10-19T10:56:55;1.13;;;0.70;;
42518;SDS011;28147;47.520;18.920;2022-10-19T11:00:10;1.95;;;0.82;;
42518;SDS011;28147;47.520;18.920;2022-10-19T11:02:24;1.20;;;0.70;;
42518;SDS011;28147;47.520;18.920;2022-10-19T11:07:50;2.05;;;0.80;;
42518;SDS011;28147;47.520;18.920;2022-10-19T11:10:23;1.55;;;0.73;;
42518;SDS011;28147;47.520;18.920;2022-10-19T11:13:07;1.23;;;0.70;;
42518;SDS011;28147;47.520;18.920;2022-10-19T11:21:17;2.00;;;1.10;;
42518;SDS011;28147;47.520;18.920;2022-10-19T11:23:50;1.85;;;0.98;;
42518;SDS011;28147;47.520;18.920;2022-10-19T11:32:02;1.95;;;1.20;;
42518;SDS011;28147;47.520;18.920;2022-10-19T11:50:58;0.60;;;0.60;;
42518;SDS011;28147;47.520;18.920;2022-10-19T12:06:30;0.98;;;0.77;;
42518;SDS011;28147;47.520;18.920;2022-10-19T12:14:30;2.88;;;0.90;;
42518;SDS011;28147;47.520;18.920;2022-10-19T12:17:01;1.70;;;1.10;;
42518;SDS011;28147;47.520;18.920;2022-10-19T12:19:33;2.92;;;1.10;;
42518;SDS011;28147;47.520;18.920;2022-10-19T12:22:04;1.75;;;1.00;;
42518;SDS011;28147;47.520;18.920;2022-10-19T12:24:37;1.83;;;1.00;;
42518;SDS011;28147;47.520;18.920;2022-10-19T12:27:02;1.77;;;1.00;;
42518;SDS011;28147;47.520;18.920;2022-10-19T12:29:32;1.65;;;0.98;;
42518;SDS011;28147;47.520;18.920;2022-10-19T12:32:03;1.95;;;1.20;;
42518;SDS011;28147;47.520;18.920;2022-10-19T12:37:40;2.00;;;0.77;;
42518;SDS011;28147;47.520;18.920;2022-10-19T12:40:25;3.28;;;0.90;;
42518;SDS011;28147;47.520;18.920;2022-10-19T12:43:16;2.45;;;1.08;;
42518;SDS011;28147;47.520;18.920;2022-10-19T12:48:45;1.38;;;0.90;;
42518;SDS011;28147;47.520;18.920;2022-10-19T12:51:49;2.30;;;0.90;;
42518;SDS011;28147;47.520;18.920;2022-10-19T12:54:15;2.47;;;1.48;;
42518;SDS011;28147;47.520;18.920;2022-10-19T12:56:51;1.67;;;0.85;;
42518;SDS011;28147;47.520;18.920;2022-10-19T12:59:28;1.80;;;1.00;;
42518;SDS011;28147;47.520;18.920;2022-10-19T13:01:59;2.83;;;1.00;;
42518;SDS011;28147;47.520;18.920;2022-10-19T13:04:30;1.30;;;0.80;;
42518;SDS011;28147;47.520;18.920;2022-10-19T13:14:56;1.20;;;0.88;;
42518;SDS011;28147;47.520;18.920;2022-10-19T13:27:52;1.83;;;0.90;;
42518;SDS011;28147;47.520;18.920;2022-10-19T13:35:46;2.13;;;1.38;;
42518;SDS011;28147;47.520;18.920;2022-10-19T13:38:22;2.55;;;1.10;;
42518;SDS011;28147;47.520;18.920;2022-10-19T13:54:13;4.22;;;2.05;;
42518;SDS011;28147;47.520;18.920;2022-10-19T14:07:09;2.72;;;1.63;;
42518;SDS011;28147;47.520;18.920;2022-10-19T14:09:53;2.72;;;1.58;;
42518;SDS011;28147;47.520;18.920;2022-10-19T14:12:39;2.83;;;1.67;;
42518;SDS011;28147;47.520;18.920;2022-10-19T14:17:48;4.25;;;1.67;;
42518;SDS011;28147;47.520;18.920;2022-10-19T14:22:53;5.43;;;2.03;;
42518;SDS011;28147;47.520;18.920;2022-10-19T14:25:23;6.70;;;2.17;;
42518;SDS011;28147;47.520;18.920;2022-10-19T14:28:00;4.13;;;2.13;;
42518;SDS011;28147;47.520;18.920;2022-10-19T14:30:30;4.75;;;1.65;;
42518;SDS011;28147;47.520;18.920;2022-10-19T14:32:58;3.10;;;2.00;;
42518;SDS011;28147;47.520;18.920;2022-10-19T14:35:28;2.55;;;1.70;;
42518;SDS011;28147;47.520;18.920;2022-10-19T14:38:02;2.22;;;1.33;;
42518;SDS011;28147;47.520;18.920;2022-10-19T14:40:36;3.13;;;1.60;;
42518;SDS011;28147;47.520;18.920;2022-10-19T14:43:25;3.42;;;1.70;;
42518;SDS011;28147;47.520;18.920;2022-10-19T14:46:03;2.05;;;1.33;;
42518;SDS011;28147;47.520;18.920;2022-10-19T14:48:32;2.63;;;1.40;;
42518;SDS011;28147;47.520;18.920;2022-10-19T14:50:59;1.92;;;1.20;;
42518;SDS011;28147;47.520;18.920;2022-10-19T14:56:09;2.95;;;1.55;;
42518;SDS011;28147;47.520;18.920;2022-10-19T14:58:40;3.58;;;1.80;;
42518;SDS011;28147;47.520;18.920;2022-10-19T15:01:15;3.30;;;1.60;;
42518;SDS011;28147;47.520;18.920;2022-10-19T15:03:42;3.92;;;1.55;;
42518;SDS011;28147;47.520;18.920;2022-10-19T15:06:17;5.72;;;1.77;;
42518;SDS011;28147;47.520;18.920;2022-10-19T15:08:48;3.40;;;1.70;;
42518;SDS011;28147;47.520;18.920;2022-10-19T15:11:36;4.25;;;1.90;;
42518;SDS011;28147;47.520;18.920;2022-10-19T15:14:08;3.08;;;1.80;;
42518;SDS011;28147;47.520;18.920;2022-10-19T15:19:04;2.60;;;1.52;;
42518;SDS011;28147;47.520;18.920;2022-10-19T15:21:38;3.55;;;1.40;;
42518;SDS011;28147;47.520;18.920;2022-10-19T15:24:23;4.10;;;2.13;;
42518;SDS011;28147;47.520;18.920;2022-10-19T15:26:51;5.70;;;2.33;;
42518;SDS011;28147;47.520;18.920;2022-10-19T15:29:19;2.28;;;1.27;;
42518;SDS011;28147;47.520;18.920;2022-10-19T15:31:47;4.00;;;1.70;;
42518;SDS011;28147;47.520;18.920;2022-10-19T15:34:30;4.20;;;1.85;;
42518;SDS011;28147;47.520;18.920;2022-10-19T15:36:56;3.35;;;1.90;;
42518;SDS011;28147;47.520;18.920;2022-10-19T15:39:32;6.13;;;2.17;;
42518;SDS011;28147;47.520;18.920;2022-10-19T15:44:47;2.20;;;1.40;;
42518;SDS011;28147;47.520;18.920;2022-10-19T15:47:17;3.30;;;1.70;;
42518;SDS011;28147;47.520;18.920;2022-10-19T15:49:52;4.75;;;2.50;;
42518;SDS011;28147;47.520;18.920;2022-10-19T15:52:21;3.13;;;1.67;;
42518;SDS011;28147;47.520;18.920;2022-10-19T15:54:52;4.50;;;1.83;;
42518;SDS011;28147;47.520;18.920;2022-10-19T15:57:32;2.28;;;1.48;;
42518;SDS011;28147;47.520;18.920;2022-10-19T16:02:25;2.67;;;1.50;;
42518;SDS011;28147;47.520;18.920;2022-10-19T16:04:51;3.05;;;1.40;;
42518;SDS011;28147;47.520;18.920;2022-10-19T16:07:28;3.42;;;1.92;;
42518;SDS011;28147;47.520;18.920;2022-10-19T16:09:55;3.53;;;1.45;;
42518;SDS011;28147;47.520;18.920;2022-10-19T16:12:22;3.13;;;1.85;;
42518;SDS011;28147;47.520;18.920;2022-10-19T16:14:49;3.22;;;1.70;;
42518;SDS011;28147;47.520;18.920;2022-10-19T16:17:14;3.00;;;1.48;;
42518;SDS011;28147;47.520;18.920;2022-10-19T16:19:40;3.03;;;1.50;;
42518;SDS011;28147;47.520;18.920;2022-10-19T16:22:06;2.17;;;1.48;;
42518;SDS011;28147;47.520;18.920;2022-10-19T16:24:32;2.67;;;1.33;;
42518;SDS011;28147;47.520;18.920;2022-10-19T16:26:58;4.40;;;1.60;;
42518;SDS011;28147;47.520;18.920;2022-10-19T16:29:24;2.47;;;1.42;;
42518;SDS011;28147;47.520;18.920;2022-10-19T16:31:49;4.35;;;1.83;;
42518;SDS011;28147;47.520;18.920;2022-10-19T16:34:15;2.70;;;1.40;;
42518;SDS011;28147;47.520;18.920;2022-10-19T16:36:41;3.08;;;1.30;;
42518;SDS011;28147;47.520;18.920;2022-10-19T16:39:06;2.33;;;1.58;;
42518;SDS011;28147;47.520;18.920;2022-10-19T16:41:32;3.45;;;1.50;;
42518;SDS011;28147;47.520;18.920;2022-10-19T16:43:57;3.40;;;1.40;;
42518;SDS011;28147;47.520;18.920;2022-10-19T16:46:23;2.33;;;1.17;;
42518;SDS011;28147;47.520;18.920;2022-10-19T16:48:50;2.92;;;1.35;;
42518;SDS011;28147;47.520;18.920;2022-10-19T16:51:26;2.53;;;1.27;;
42518;SDS011;28147;47.520;18.920;2022-10-19T16:53:55;3.35;;;1.63;;
42518;SDS011;28147;47.520;18.920;2022-10-19T16:56:22;2.63;;;1.33;;
42518;SDS011;28147;47.520;18.920;2022-10-19T16:58:51;3.13;;;1.27;;
42518;SDS011;28147;47.520;18.920;2022-10-19T17:01:18;4.97;;;2.08;;
42518;SDS011;28147;47.520;18.920;2022-10-19T17:03:45;2.65;;;1.40;;
42518;SDS011;28147;47.520;18.920;2022-10-19T17:06:12;3.00;;;1.35;;
42518;SDS011;28147;47.520;18.920;2022-10-19T17:08:38;3.05;;;1.50;;
42518;SDS011;28147;47.520;18.920;2022-10-19T17:11:17;2.17;;;1.30;;
42518;SDS011;28147;47.520;18.920;2022-10-19T17:13:47;2.35;;;1.20;;
42518;SDS011;28147;47.520;18.920;2022-10-19T17:16:14;3.10;;;1.38;;
42518;SDS011;28147;47.520;18.920;2022-10-19T17:18:40;2.83;;;1.52;;
42518;SDS011;28147;47.520;18.920;2022-10-19T17:21:14;3.78;;;1.75;;
42518;SDS011;28147;47.520;18.920;2022-10-19T17:23:42;4.53;;;1.90;;
42518;SDS011;28147;47.520;18.920;2022-10-19T17:26:08;3.20;;;1.50;;
42518;SDS011;28147;47.520;18.920;2022-10-19T17:28:35;4.43;;;1.67;;
42518;SDS011;28147;47.520;18.920;2022-10-19T17:31:02;4.40;;;2.20;;
42518;SDS011;28147;47.520;18.920;2022-10-19T17:33:30;3.92;;;1.60;;
42518;SDS011;28147;47.520;18.920;2022-10-19T17:36:01;2.67;;;1.60;;